Time;durP1;ratioP1;P1;durP2;ratioP2;P2;SDS_P1;SDS_P2;PMS_P1;PMS_P2;Temp;Humidity;BMP_temperature;BMP_pressure;BME280_temperature;BME280_humidity;BME280_pressure;Samples;Min_cycle;Max_cycle;Signal;HPM_P1;HPM_P2
2021/09/16 00:01:05;;;;;;;13.37;10.93;;;;;;;18.44;51.03;95397.56;5043627;28;20244;-67
2021/09/16 00:03:33;;;;;;;17.43;11.37;;;;;;;18.14;51.32;95395.38;5039690;28;20200;-66
2021/09/16 00:06:00;;;;;;;17.37;10.83;;;;;;;18.13;51.46;95405.22;5033535;28;20205;-67
2021/09/16 00:08:26;;;;;;;15.50;10.80;;;;;;;18.15;52.03;95404.91;5037783;28;20203;-67
2021/09/16 00:10:54;;;;;;;15.10;11.60;;;;;;;18.17;51.29;95390.25;5048980;28;20227;-66
2021/09/16 00:13:21;;;;;;;15.37;11.67;;;;;;;18.23;51.36;95393.63;5029952;28;20447;-65
2021/09/16 00:15:48;;;;;;;14.47;10.80;;;;;;;18.17;51.23;95402.75;5029678;28;20243;-67
2021/09/16 00:18:14;;;;;;;15.50;10.63;;;;;;;18.15;51.20;95403.06;5041960;28;20685;-66
2021/09/16 00:20:41;;;;;;;17.10;11.13;;;;;;;18.09;51.63;95398.91;5049195;28;20200;-66
2021/09/16 00:23:08;;;;;;;18.90;10.60;;;;;;;17.79;52.26;95414.50;5039584;28;20443;-65
2021/09/16 00:25:35;;;;;;;16.77;10.97;;;;;;;17.81;52.50;95412.34;5032238;28;20228;-66
2021/09/16 00:28:02;;;;;;;16.33;11.33;;;;;;;17.52;52.66;95403.72;5049071;28;20446;-67
2021/09/16 00:30:29;;;;;;;13.70;11.50;;;;;;;17.82;52.33;95408.59;5049555;28;20586;-67
2021/09/16 00:32:56;;;;;;;19.30;11.70;;;;;;;17.83;52.17;95404.88;5042247;28;20455;-66
2021/09/16 00:35:23;;;;;;;20.67;12.07;;;;;;;17.75;52.89;95408.97;5043238;28;20450;-68
2021/09/16 00:37:50;;;;;;;18.60;10.63;;;;;;;17.74;52.10;95412.69;5048600;28;20533;-67
2021/09/16 00:40:17;;;;;;;15.17;10.00;;;;;;;17.84;52.18;95406.47;5049835;28;20439;-68
2021/09/16 00:42:44;;;;;;;15.10;11.07;;;;;;;17.90;51.94;95410.63;5048592;28;20477;-68
2021/09/16 00:45:12;;;;;;;12.23;9.90;;;;;;;17.65;51.30;95424.22;5050427;28;20443;-67
2021/09/16 00:47:43;;;;;;;11.63;9.20;;;;;;;17.80;51.25;95416.06;5052456;28;20454;-67
2021/09/16 00:50:17;;;;;;;12.47;10.40;;;;;;;16.80;54.92;95413.59;5043414;28;20499;-67
2021/09/16 00:52:44;;;;;;;12.27;10.23;;;;;;;17.29;53.20;95409.84;5046986;28;20898;-66
2021/09/16 00:55:11;;;;;;;13.47;10.17;;;;;;;17.59;52.15;95414.78;5040075;28;21502;-66
2021/09/16 00:57:40;;;;;;;13.53;10.20;;;;;;;17.69;52.11;95410.13;5049765;28;20450;-68
2021/09/16 01:00:09;;;;;;;20.17;10.97;;;;;;;17.67;52.81;95406.97;5052984;28;20814;-66
2021/09/16 01:02:36;;;;;;;14.40;10.77;;;;;;;17.16;54.67;95409.47;5052858;28;20530;-67
2021/09/16 01:05:04;;;;;;;17.63;10.17;;;;;;;16.97;55.82;95408.63;5053219;28;20963;-66
2021/09/16 01:07:31;;;;;;;13.57;10.67;;;;;;;17.02;55.21;95405.13;5052263;28;20836;-67
2021/09/16 01:09:59;;;;;;;17.87;12.20;;;;;;;17.18;55.37;95403.88;5053277;28;20843;-65
2021/09/16 01:12:27;;;;;;;16.83;10.37;;;;;;;17.30;55.04;95395.53;5053419;28;20481;-66
2021/09/16 01:14:54;;;;;;;16.57;11.13;;;;;;;17.40;54.01;95405.97;5056189;28;20510;-66
2021/09/16 01:17:21;;;;;;;17.60;10.80;;;;;;;17.42;53.67;95399.34;5066230;28;20457;-65
2021/09/16 01:19:48;;;;;;;12.93;10.30;;;;;;;17.43;54.05;95408.06;5067546;28;20435;-65
2021/09/16 01:22:19;;;;;;;13.93;10.37;;;;;;;17.46;54.02;95410.16;5066918;28;20443;-65
2021/09/16 01:24:47;;;;;;;15.73;10.77;;;;;;;17.23;54.57;95401.97;5066442;28;20435;-65
2021/09/16 01:27:15;;;;;;;12.43;10.33;;;;;;;17.47;53.86;95407.25;5055165;28;20442;-66
2021/09/16 01:29:42;;;;;;;20.43;11.43;;;;;;;17.52;54.09;95406.38;5052575;28;20534;-67
2021/09/16 01:32:10;;;;;;;17.23;10.43;;;;;;;17.44;54.47;95394.53;5052581;28;20473;-66
2021/09/16 01:34:37;;;;;;;17.30;10.50;;;;;;;17.26;54.21;95405.13;5039206;28;20482;-68
2021/09/16 01:37:05;;;;;;;14.30;10.60;;;;;;;17.37;54.34;95401.25;5031956;28;20518;-66
2021/09/16 01:39:32;;;;;;;17.77;10.13;;;;;;;17.49;53.88;95409.59;5032509;28;20442;-65
2021/09/16 01:41:59;;;;;;;15.13;10.70;;;;;;;17.50;53.94;95411.97;5049953;28;20435;-66
2021/09/16 01:44:26;;;;;;;15.60;10.37;;;;;;;17.40;54.49;95406.78;5051810;28;20521;-67
2021/09/16 01:46:52;;;;;;;14.83;10.07;;;;;;;17.26;54.20;95386.56;5051877;28;20466;-67
2021/09/16 01:49:19;;;;;;;16.13;11.03;;;;;;;17.49;53.60;95404.31;5052049;28;20546;-66
2021/09/16 01:51:46;;;;;;;16.53;10.70;;;;;;;17.41;53.98;95411.00;5041085;28;20479;-65
2021/09/16 01:54:13;;;;;;;16.87;11.03;;;;;;;17.44;53.50;95399.03;5048493;28;20920;-67
2021/09/16 01:56:40;;;;;;;15.40;11.33;;;;;;;17.44;52.98;95399.03;5051629;28;20858;-65
2021/09/16 01:59:07;;;;;;;13.03;10.83;;;;;;;17.36;53.88;95402.31;5051344;28;20442;-68
2021/09/16 02:01:34;;;;;;;15.63;11.27;;;;;;;17.43;53.43;95405.41;5045344;28;20450;-66
2021/09/16 02:04:01;;;;;;;16.67;11.37;;;;;;;17.28;53.22;95400.31;5048192;28;20486;-66
2021/09/16 02:06:27;;;;;;;17.90;11.00;;;;;;;17.12;53.71;95397.84;5051242;28;20445;-67
2021/09/16 02:08:54;;;;;;;14.53;11.03;;;;;;;17.00;53.99;95405.44;5051485;28;20435;-67
2021/09/16 02:11:21;;;;;;;14.33;11.37;;;;;;;17.00;54.39;95402.78;5051540;28;20514;-68
2021/09/16 02:13:48;;;;;;;13.93;10.80;;;;;;;17.08;53.85;95394.19;5051751;28;20442;-67
2021/09/16 02:16:16;;;;;;;20.10;12.10;;;;;;;16.91;54.37;95396.53;5050955;28;20473;-68
2021/09/16 02:18:42;;;;;;;16.67;11.37;;;;;;;16.95;53.62;95391.47;5051968;28;20534;-67
2021/09/16 02:21:09;;;;;;;15.63;11.50;;;;;;;16.59;55.44;95396.34;5052041;28;20454;-66
2021/09/16 02:23:36;;;;;;;14.87;11.27;;;;;;;16.73;54.94;95397.25;5052683;28;20505;-66
2021/09/16 02:26:03;;;;;;;17.57;11.47;;;;;;;16.81;54.78;95396.63;5050830;28;20446;-67
2021/09/16 02:28:30;;;;;;;20.60;10.60;;;;;;;16.86;54.39;95364.81;5051347;28;20446;-66
2021/09/16 02:30:57;;;;;;;17.20;11.17;;;;;;;16.88;54.24;95385.69;5051706;28;20510;-68
2021/09/16 02:33:24;;;;;;;18.80;11.40;;;;;;;16.90;54.89;95387.00;5054164;28;21032;-66
2021/09/16 02:35:54;;;;;;;21.50;11.60;;;;;;;16.74;55.31;95393.53;5053106;28;20483;-66
2021/09/16 02:38:22;;;;;;;15.73;11.13;;;;;;;16.81;54.53;95404.56;5050881;28;20451;-66
2021/09/16 02:40:50;;;;;;;14.57;11.07;;;;;;;16.76;54.61;95399.34;5050934;28;20944;-66
2021/09/16 02:43:17;;;;;;;17.40;10.83;;;;;;;16.80;54.21;95403.00;5050730;28;20526;-66
2021/09/16 02:45:44;;;;;;;15.47;11.00;;;;;;;16.74;55.09;95408.63;5050955;28;20443;-66
2021/09/16 02:48:12;;;;;;;20.47;11.80;;;;;;;16.72;55.04;95410.75;5050902;28;20473;-68
2021/09/16 02:50:39;;;;;;;14.17;11.30;;;;;;;16.70;54.96;95408.41;5035707;28;20865;-67
2021/09/16 02:53:05;;;;;;;16.97;10.63;;;;;;;16.73;54.48;95413.13;5031069;28;20443;-67
2021/09/16 02:55:32;;;;;;;17.80;11.13;;;;;;;16.57;54.93;95398.47;5038248;28;20443;-67
2021/09/16 02:57:59;;;;;;;23.63;11.77;;;;;;;16.65;55.22;95405.81;5044282;28;20446;-69
2021/09/16 03:00:26;;;;;;;19.13;11.90;;;;;;;16.68;54.65;95410.53;5044299;28;20464;-66
2021/09/16 03:02:53;;;;;;;15.30;11.43;;;;;;;16.76;55.26;95404.63;5038586;28;20431;-66
2021/09/16 03:05:21;;;;;;;16.67;11.80;;;;;;;16.62;54.92;95406.38;5050530;28;20450;-65
2021/09/16 03:07:49;;;;;;;14.80;10.93;;;;;;;16.52;55.48;95401.19;5050282;28;20447;-64
2021/09/16 03:10:16;;;;;;;18.37;12.60;;;;;;;16.43;55.72;95397.53;5049642;28;21003;-67
2021/09/16 03:12:43;;;;;;;15.23;12.10;;;;;;;16.45;55.17;95400.69;5049797;28;20470;-65
2021/09/16 03:15:11;;;;;;;17.53;10.47;;;;;;;16.24;55.32;95404.56;5050311;28;20434;-66
2021/09/16 03:17:38;;;;;;;12.73;10.20;;;;;;;16.36;54.55;95397.06;5050254;28;20548;-67
2021/09/16 03:20:06;;;;;;;13.83;10.53;;;;;;;16.51;54.85;95410.19;5053064;28;20501;-67
2021/09/16 03:22:33;;;;;;;15.83;10.00;;;;;;;16.44;54.75;95409.69;5061974;28;20512;-67
2021/09/16 03:25:01;;;;;;;13.33;10.20;;;;;;;16.48;54.44;95405.44;5063720;28;20439;-65
2021/09/16 03:27:28;;;;;;;13.37;10.10;;;;;;;16.51;54.39;95391.69;5059678;28;20473;-69
2021/09/16 03:29:55;;;;;;;15.33;9.90;;;;;;;16.50;53.92;95400.66;5056719;28;20865;-68
2021/09/16 03:32:22;;;;;;;15.03;9.40;;;;;;;16.48;54.41;95408.09;5038565;28;20471;-66
2021/09/16 03:34:49;;;;;;;12.57;9.13;;;;;;;16.48;54.67;95405.44;5034417;28;20439;-68
2021/09/16 03:37:16;;;;;;;12.17;9.50;;;;;;;16.37;54.29;95403.16;5040254;28;20860;-67
2021/09/16 03:39:42;;;;;;;12.03;10.07;;;;;;;16.40;54.22;95402.59;5046136;28;20865;-67
2021/09/16 03:42:09;;;;;;;12.10;9.90;;;;;;;16.40;54.80;95406.03;5050604;28;20442;-66
2021/09/16 03:44:36;;;;;;;11.37;9.33;;;;;;;16.41;54.84;95399.66;5049427;28;21074;-67
2021/09/16 03:47:08;;;;;;;10.37;9.30;;;;;;;16.40;54.94;95408.69;5037111;28;20478;-65
2021/09/16 03:49:40;;;;;;;12.13;9.47;;;;;;;16.29;54.70;95415.13;5042964;28;21181;-66
2021/09/16 03:52:08;;;;;;;12.03;9.80;;;;;;;16.37;54.69;95413.75;5043062;28;20676;-65
2021/09/16 03:54:36;;;;;;;14.83;10.30;;;;;;;16.31;54.87;95412.19;5044202;28;20830;-66
2021/09/16 03:57:04;;;;;;;13.97;10.40;;;;;;;16.34;54.38;95409.78;5030099;28;20475;-66
2021/09/16 03:59:31;;;;;;;14.20;11.40;;;;;;;16.12;55.20;95398.88;5048470;28;20458;-65
2021/09/16 04:01:58;;;;;;;19.27;12.10;;;;;;;16.28;54.94;95405.59;5049235;28;20919;-68
2021/09/16 04:04:25;;;;;;;15.13;11.60;;;;;;;16.18;55.26;95411.00;5049916;28;20524;-66
2021/09/16 04:06:52;;;;;;;19.90;11.87;;;;;;;16.31;54.30;95404.25;5049418;28;20473;-66
2021/09/16 04:09:19;;;;;;;18.63;11.57;;;;;;;16.22;54.88;95404.84;5049584;28;20451;-68
2021/09/16 04:11:46;;;;;;;23.53;13.00;;;;;;;16.18;55.26;95405.69;5053220;28;21002;-67
2021/09/16 04:14:12;;;;;;;19.40;12.93;;;;;;;16.12;54.99;95401.50;5049847;28;20453;-68
2021/09/16 04:16:39;;;;;;;18.73;13.30;;;;;;;16.14;55.25;95402.03;5049887;28;20501;-66
2021/09/16 04:19:06;;;;;;;16.90;12.77;;;;;;;15.98;56.36;95416.44;5049655;28;20512;-68
2021/09/16 04:21:33;;;;;;;22.43;14.13;;;;;;;16.02;56.25;95422.75;5052503;28;20439;-68
2021/09/16 04:24:00;;;;;;;17.07;12.83;;;;;;;16.05;55.51;95423.00;5044253;28;20439;-65
2021/09/16 04:26:27;;;;;;;18.70;13.40;;;;;;;16.10;54.93;95425.59;5051033;28;20538;-66
2021/09/16 04:28:54;;;;;;;22.27;13.37;;;;;;;16.03;55.84;95424.31;5044844;28;20439;-66
2021/09/16 04:31:21;;;;;;;24.43;14.10;;;;;;;16.09;55.89;95417.94;5053473;28;20482;-67
2021/09/16 04:33:48;;;;;;;118.60;19.73;;;;;;;16.11;56.02;95427.16;5053893;28;20500;-67
2021/09/16 04:36:15;;;;;;;23.33;14.53;;;;;;;16.04;56.26;95428.53;5053610;28;20538;-66
2021/09/16 04:38:42;;;;;;;24.90;15.53;;;;;;;16.09;56.16;95424.00;5043702;28;20446;-69
2021/09/16 04:41:09;;;;;;;32.17;14.53;;;;;;;16.19;56.08;95428.41;5053513;28;20442;-68
2021/09/16 04:43:35;;;;;;;41.10;28.93;;;;;;;16.17;55.74;95430.53;5049482;28;20984;-70
2021/09/16 04:46:02;;;;;;;39.57;26.90;;;;;;;16.28;56.42;95441.84;5045772;28;20443;-68
2021/09/16 04:48:29;;;;;;;82.90;67.23;;;;;;;16.28;56.29;95441.84;5055476;28;20442;-73
2021/09/16 04:50:56;;;;;;;22.73;16.23;;;;;;;16.33;55.63;95445.22;5054548;28;20451;-72
2021/09/16 04:53:22;;;;;;;21.40;15.27;;;;;;;16.28;55.88;95441.84;5055970;28;20474;-71
2021/09/16 04:55:49;;;;;;;22.73;15.07;;;;;;;16.28;55.76;95444.50;5037344;28;20440;-67
2021/09/16 04:58:16;;;;;;;32.17;20.63;;;;;;;16.23;56.52;95445.31;5041707;28;20474;-69
2021/09/16 05:00:43;;;;;;;54.53;40.30;;;;;;;16.37;55.82;95438.31;5041698;28;20976;-69
2021/09/16 05:03:10;;;;;;;103.53;83.30;;;;;;;16.40;55.71;95440.41;5053546;28;20439;-70
2021/09/16 05:05:37;;;;;;;27.30;17.77;;;;;;;16.28;56.33;95447.16;5053065;28;20828;-67
2021/09/16 05:08:04;;;;;;;25.20;16.53;;;;;;;16.32;56.02;95453.44;5053483;28;20443;-67
2021/09/16 05:10:31;;;;;;;24.03;15.90;;;;;;;16.39;56.08;95454.69;5053995;28;20451;-66
2021/09/16 05:12:58;;;;;;;28.43;17.30;;;;;;;16.29;55.64;95462.72;5053063;28;20988;-69
2021/09/16 05:15:25;;;;;;;65.23;47.37;;;;;;;16.36;56.13;95455.25;5053469;28;20447;-68
2021/09/16 05:17:52;;;;;;;55.20;45.03;;;;;;;16.50;55.33;95455.41;5052688;28;20443;-70
2021/09/16 05:20:19;;;;;;;72.70;64.30;;;;;;;16.66;55.35;95454.25;5059444;28;20516;-70
2021/09/16 05:22:46;;;;;;;26.00;19.27;;;;;;;16.76;55.35;95460.22;5060436;28;20528;-72
2021/09/16 05:25:13;;;;;;;28.57;18.00;;;;;;;16.75;55.32;95450.69;5060146;28;20821;-69
2021/09/16 05:27:40;;;;;;;27.60;18.90;;;;;;;16.70;55.12;95461.31;5059912;28;20496;-69
2021/09/16 05:30:07;;;;;;;25.73;18.20;;;;;;;16.91;55.30;95454.78;5057921;28;20435;-70
2021/09/16 05:32:35;;;;;;;28.10;19.70;;;;;;;16.97;54.90;95453.63;5051066;28;20470;-70
2021/09/16 05:35:02;;;;;;;28.47;18.57;;;;;;;16.97;54.88;95461.56;5052917;28;20439;-70
2021/09/16 05:37:30;;;;;;;31.70;19.83;;;;;;;16.89;55.15;95467.50;5052477;28;20895;-70
2021/09/16 05:39:57;;;;;;;32.57;20.03;;;;;;;16.83;55.38;95468.59;5053074;28;20443;-70
2021/09/16 05:42:26;;;;;;;27.83;18.03;;;;;;;16.81;54.88;95468.09;5051960;28;21038;-71
2021/09/16 05:44:54;;;;;;;26.47;17.57;;;;;;;16.98;55.22;95459.72;5053107;28;20458;-72
2021/09/16 05:47:21;;;;;;;33.20;18.23;;;;;;;16.97;55.78;95464.22;5052345;28;20475;-72
2021/09/16 05:49:48;;;;;;;26.10;17.50;;;;;;;17.09;56.04;95462.00;5044687;28;20451;-73
2021/09/16 05:52:16;;;;;;;34.20;17.30;;;;;;;17.19;55.84;95461.84;5046505;28;20494;-72
2021/09/16 05:54:43;;;;;;;30.67;17.23;;;;;;;17.14;55.45;95455.84;5052076;28;21021;-70
2021/09/16 05:57:09;;;;;;;26.40;18.10;;;;;;;17.18;56.09;95467.44;5038714;28;20454;-70
2021/09/16 05:59:36;;;;;;;27.00;16.77;;;;;;;17.21;55.97;95459.72;5037543;28;20834;-71
2021/09/16 06:02:03;;;;;;;27.87;20.60;;;;;;;17.35;56.10;95451.88;5051028;28;20963;-70
2021/09/16 06:04:30;;;;;;;32.87;24.83;;;;;;;17.44;54.90;95460.78;5038660;28;20496;-70
2021/09/16 06:07:03;;;;;;;34.90;24.33;;;;;;;17.35;54.27;95451.09;5051541;28;20551;-71
2021/09/16 06:09:33;;;;;;;21.20;15.50;;;;;;;17.51;54.92;95463.91;5051787;28;20447;-71
2021/09/16 06:12:03;;;;;;;28.53;18.10;;;;;;;17.66;53.87;95461.06;5039135;28;20475;-69
2021/09/16 06:14:30;;;;;;;23.30;16.93;;;;;;;17.73;54.09;95463.34;5050579;28;20435;-70
2021/09/16 06:16:58;;;;;;;26.17;16.57;;;;;;;17.84;54.09;95462.94;5051179;28;21416;-71
2021/09/16 06:19:25;;;;;;;26.20;16.10;;;;;;;17.61;54.94;95470.94;5050981;28;20900;-69
2021/09/16 06:21:52;;;;;;;25.10;15.83;;;;;;;17.98;54.72;95460.31;5051455;28;20447;-69
2021/09/16 06:24:19;;;;;;;25.97;16.90;;;;;;;18.29;53.68;95466.75;5052049;28;20546;-70
2021/09/16 06:26:46;;;;;;;27.10;16.70;;;;;;;18.42;53.55;95466.03;5050756;28;20197;-70
2021/09/16 06:29:13;;;;;;;18.70;15.10;;;;;;;18.19;53.98;95466.91;5052122;28;20964;-70
2021/09/16 06:31:39;;;;;;;26.43;16.70;;;;;;;17.91;53.04;95431.53;5050980;28;20266;-70
2021/09/16 06:34:07;;;;;;;22.00;15.33;;;;;;;18.37;52.74;95468.75;5057740;28;20439;-70
2021/09/16 06:36:34;;;;;;;19.97;15.47;;;;;;;18.32;51.82;95460.09;5050911;28;20919;-72
2021/09/16 06:39:01;;;;;;;25.53;16.47;;;;;;;18.47;51.16;95458.00;5052488;28;20192;-70
2021/09/16 06:41:28;;;;;;;22.13;15.07;;;;;;;18.67;51.40;95449.69;5050676;28;20212;-70
2021/09/16 06:43:55;;;;;;;21.13;16.20;;;;;;;18.51;53.89;95448.38;5050620;28;20463;-69
2021/09/16 06:46:22;;;;;;;27.60;16.00;;;;;;;18.63;50.93;95456.66;5050684;28;20204;-70
2021/09/16 06:48:49;;;;;;;22.87;15.47;;;;;;;18.72;52.53;95444.28;5050840;28;20196;-70
2021/09/16 06:51:16;;;;;;;25.83;16.47;;;;;;;18.92;51.68;95449.22;5037335;28;20193;-70
2021/09/16 06:53:59;;;;;;;29.20;16.73;;;;;;;18.91;52.38;95452.97;5050227;28;20208;-70
2021/09/16 06:56:26;;;;;;;24.53;16.70;;;;;;;18.98;52.85;95450.72;5037999;28;20195;-70
2021/09/16 06:58:53;;;;;;;27.50;17.90;;;;;;;18.89;52.54;95449.81;5038333;28;20766;-73
2021/09/16 07:01:20;;;;;;;22.87;16.67;;;;;;;19.08;52.01;95441.78;5051646;28;20204;-70
2021/09/16 07:03:47;;;;;;;26.47;17.23;;;;;;;19.21;50.60;95452.38;5052023;28;20209;-71
2021/09/16 07:06:15;;;;;;;23.30;16.77;;;;;;;19.29;50.89;95452.81;5050247;28;20639;-69
2021/09/16 07:08:42;;;;;;;25.50;15.83;;;;;;;19.28;50.50;95451.22;5050809;28;20239;-71
2021/09/16 07:11:10;;;;;;;23.90;16.67;;;;;;;19.42;50.39;95436.88;5050618;28;20192;-70
2021/09/16 07:13:37;;;;;;;24.83;15.80;;;;;;;19.36;50.55;95450.56;5050553;28;20220;-70
2021/09/16 07:16:04;;;;;;;28.60;16.77;;;;;;;19.42;51.29;95442.19;5050283;28;20192;-70
2021/09/16 07:18:34;;;;;;;28.27;17.27;;;;;;;19.63;50.07;95437.25;5050927;28;20299;-71
2021/09/16 07:21:03;;;;;;;27.60;17.63;;;;;;;19.63;51.31;95447.88;5049961;28;20648;-71
2021/09/16 07:23:29;;;;;;;23.60;16.20;;;;;;;19.90;50.28;95427.31;5050571;28;20199;-69
2021/09/16 07:26:03;;;;;;;23.50;16.87;;;;;;;20.07;49.89;95430.09;5061610;28;20537;-71
2021/09/16 07:28:34;;;;;;;27.43;17.10;;;;;;;20.02;50.65;95440.06;5062177;28;20196;-71
2021/09/16 07:31:02;;;;;;;31.87;18.17;;;;;;;20.13;49.84;95433.44;5060833;28;20212;-70
2021/09/16 07:33:29;;;;;;;29.37;16.57;;;;;;;20.29;50.54;95429.34;5062768;28;20255;-71
2021/09/16 07:35:56;;;;;;;28.63;17.50;;;;;;;20.42;49.88;95446.38;5057952;28;20189;-71
2021/09/16 07:38:23;;;;;;;28.07;17.70;;;;;;;20.41;50.51;95437.59;5036394;28;20295;-70
2021/09/16 07:40:50;;;;;;;42.77;19.60;;;;;;;20.42;50.24;95436.47;5049833;28;20216;-69
2021/09/16 07:43:17;;;;;;;35.60;17.77;;;;;;;20.78;49.54;95447.81;5050052;28;20235;-70
2021/09/16 07:45:47;;;;;;;40.60;18.33;;;;;;;20.61;48.45;95431.75;5050366;28;20208;-69
2021/09/16 07:48:14;;;;;;;24.27;16.87;;;;;;;20.88;48.19;95436.91;5050180;28;20209;-70
2021/09/16 07:50:41;;;;;;;37.87;16.57;;;;;;;21.17;46.07;95433.75;5036249;28;20256;-72
2021/09/16 07:53:10;;;;;;;29.23;16.73;;;;;;;21.17;47.68;95434.53;5050144;28;20219;-70
2021/09/16 07:55:37;;;;;;;29.67;17.00;;;;;;;21.14;46.81;95423.72;5049303;28;20280;-71
2021/09/16 07:58:05;;;;;;;35.37;17.73;;;;;;;21.26;46.13;95437.22;5050128;28;20189;-70
2021/09/16 08:00:33;;;;;;;26.07;16.50;;;;;;;21.25;46.00;95442.88;5037250;28;20229;-70
2021/09/16 08:03:00;;;;;;;30.30;17.23;;;;;;;21.22;44.71;95444.31;5037190;28;20223;-70
2021/09/16 08:05:28;;;;;;;28.40;15.33;;;;;;;21.41;45.59;95444.03;5049682;28;20295;-70
2021/09/16 08:07:56;;;;;;;23.07;15.87;;;;;;;21.62;45.20;95440.47;5049924;28;20546;-71
2021/09/16 08:10:23;;;;;;;26.50;15.13;;;;;;;21.94;45.24;95442.75;5037781;28;20201;-70
2021/09/16 08:12:50;;;;;;;26.67;15.60;;;;;;;22.03;45.64;95434.72;5047615;28;20219;-70
2021/09/16 08:15:18;;;;;;;28.67;19.23;;;;;;;22.05;46.08;95432.53;5050181;28;20318;-69
2021/09/16 08:17:45;;;;;;;29.83;16.47;;;;;;;22.31;45.28;95419.97;5049283;28;20200;-72
2021/09/16 08:20:13;;;;;;;30.73;16.47;;;;;;;22.26;45.26;95422.81;5050450;28;20189;-70
2021/09/16 08:22:43;;;;;;;28.13;17.27;;;;;;;22.49;44.01;95421.50;5049268;28;20211;-70
2021/09/16 08:25:14;;;;;;;21.30;17.53;;;;;;;22.66;43.50;95421.47;5049809;28;20200;-71
2021/09/16 08:27:41;;;;;;;26.17;17.93;;;;;;;22.35;44.27;95399.56;5034912;28;20571;-71
2021/09/16 08:30:11;;;;;;;24.93;17.23;;;;;;;22.50;44.24;95412.38;5042339;28;20221;-69
2021/09/16 08:32:38;;;;;;;30.40;18.33;;;;;;;22.47;45.01;95402.34;5043128;28;20223;-69
2021/09/16 08:35:07;;;;;;;24.80;16.50;;;;;;;22.74;44.75;95412.69;5050614;28;20586;-70
2021/09/16 08:37:34;;;;;;;25.93;16.73;;;;;;;22.92;43.66;95398.16;5037023;28;20223;-69
2021/09/16 08:40:03;;;;;;;34.10;17.00;;;;;;;22.98;43.16;95406.78;5033952;28;20193;-70
2021/09/16 08:42:30;;;;;;;26.20;15.77;;;;;;;23.38;40.83;95399.22;5048877;28;20207;-69
2021/09/16 08:44:58;;;;;;;19.50;15.90;;;;;;;23.45;41.40;95392.25;5049744;28;20197;-71
2021/09/16 08:47:25;;;;;;;24.33;15.43;;;;;;;23.51;40.72;95392.84;5039575;28;20212;-69
2021/09/16 08:49:53;;;;;;;26.50;15.00;;;;;;;23.71;41.69;95392.09;5029686;28;20711;-69
2021/09/16 08:52:20;;;;;;;28.10;14.03;;;;;;;23.91;39.99;95391.31;5030347;28;20221;-69
2021/09/16 08:54:48;;;;;;;20.53;14.03;;;;;;;23.91;39.96;95393.97;5041904;28;20189;-70
2021/09/16 08:57:16;;;;;;;21.27;13.07;;;;;;;24.00;39.16;95384.00;5029148;28;20759;-70
2021/09/16 08:59:45;;;;;;;25.20;13.90;;;;;;;24.26;39.23;95392.63;5035670;28;20196;-70
2021/09/16 09:02:13;;;;;;;23.33;14.23;;;;;;;24.22;39.96;95386.34;5049268;28;20207;-68
2021/09/16 09:04:40;;;;;;;24.93;14.23;;;;;;;24.20;38.47;95372.50;5048968;28;20205;-70
2021/09/16 09:07:08;;;;;;;23.20;13.80;;;;;;;24.50;39.10;95382.00;5048749;28;20207;-69
2021/09/16 09:09:35;;;;;;;19.80;13.63;;;;;;;24.69;38.49;95368.84;5053343;28;20300;-70
2021/09/16 09:12:12;;;;;;;17.87;12.67;;;;;;;24.74;38.27;95375.94;5052590;28;20701;-70
2021/09/16 09:14:47;;;;;;;20.50;12.67;;;;;;;25.04;37.70;95377.28;5053312;28;20199;-70
2021/09/16 09:17:23;;;;;;;22.80;13.33;;;;;;;24.96;37.13;95378.19;5039812;28;20193;-69
2021/09/16 09:19:52;;;;;;;21.47;13.57;;;;;;;25.10;36.84;95375.97;5039003;28;20303;-70
2021/09/16 09:22:30;;;;;;;15.83;11.93;;;;;;;25.09;38.66;95369.81;5052480;28;20196;-69
2021/09/16 09:25:00;;;;;;;13.70;11.40;;;;;;;25.44;37.06;95358.63;5039476;28;20618;-70
2021/09/16 09:27:32;;;;;;;27.23;10.90;;;;;;;25.56;35.58;95353.25;5052376;28;20248;-69
2021/09/16 09:30:08;;;;;;;20.00;10.73;;;;;;;25.64;35.61;95368.44;5038517;28;20394;-70
2021/09/16 09:33:12;;;;;;;16.47;10.07;;;;;;;25.67;36.58;95365.09;5052244;28;20318;-70
2021/09/16 09:35:44;;;;;;;15.50;9.93;;;;;;;25.87;36.78;95338.09;5049964;28;20196;-69
2021/09/16 09:38:15;;;;;;;20.87;10.13;;;;;;;25.98;36.18;95351.81;5051468;28;20197;-70
2021/09/16 09:40:45;;;;;;;16.50;10.80;;;;;;;25.73;37.11;95358.38;5052426;28;20215;-70
2021/09/16 09:43:37;;;;;;;21.93;10.47;;;;;;;26.12;37.11;95354.13;5051918;28;20228;-70
2021/09/16 09:46:12;;;;;;;19.43;10.53;;;;;;;26.38;36.30;95352.56;5056983;28;20313;-69
2021/09/16 09:49:02;;;;;;;24.73;11.07;;;;;;;26.49;35.61;95350.94;5064989;28;20587;-70
2021/09/16 09:51:37;;;;;;;18.67;10.03;;;;;;;26.45;35.68;95351.94;5053417;28;20193;-70
2021/09/16 09:54:21;;;;;;;20.27;10.57;;;;;;;26.71;35.85;95347.69;5062469;28;20227;-70
2021/09/16 09:57:02;;;;;;;17.57;9.67;;;;;;;26.98;34.93;95349.50;5054899;28;20204;-70
2021/09/16 09:59:51;;;;;;;15.40;10.33;;;;;;;27.11;35.92;95344.03;5040708;28;20205;-70
2021/09/16 10:02:21;;;;;;;15.00;9.80;;;;;;;26.84;34.92;95349.13;5051522;28;20200;-69
2021/09/16 10:04:49;;;;;;;18.27;10.80;;;;;;;27.05;34.65;95332.75;5051973;28;20193;-70
2021/09/16 10:07:29;;;;;;;16.73;9.70;;;;;;;27.57;34.07;95333.19;5051472;28;20192;-70
2021/09/16 10:09:58;;;;;;;18.63;9.73;;;;;;;27.63;33.64;95331.78;5051877;28;20200;-69
2021/09/16 10:12:26;;;;;;;16.67;9.47;;;;;;;27.69;33.32;95334.97;5051127;28;20220;-69
2021/09/16 10:15:09;;;;;;;14.70;9.80;;;;;;;27.81;32.83;95332.16;5052288;28;20231;-70
2021/09/16 10:17:38;;;;;;;17.37;9.47;;;;;;;27.80;33.38;95331.38;5050980;28;20203;-71
2021/09/16 10:20:11;;;;;;;22.37;9.40;;;;;;;27.80;32.92;95320.63;5051219;28;20271;-70
2021/09/16 10:22:39;;;;;;;16.37;8.77;;;;;;;27.68;33.04;95322.66;5050886;28;20199;-70
2021/09/16 10:25:08;;;;;;;16.10;9.57;;;;;;;27.73;31.26;95319.69;5052288;28;20196;-69
2021/09/16 10:27:47;;;;;;;18.80;9.17;;;;;;;27.95;33.25;95310.94;5051021;28;20197;-70
2021/09/16 10:30:23;;;;;;;20.40;9.33;;;;;;;28.10;32.13;95310.06;5051828;28;20184;-69
2021/09/16 10:33:12;;;;;;;14.63;8.67;;;;;;;28.43;31.33;95310.28;5050765;28;20228;-70
2021/09/16 10:35:47;;;;;;;14.57;8.77;;;;;;;28.67;32.44;95309.97;5050964;28;20216;-69
2021/09/16 10:38:22;;;;;;;15.07;8.83;;;;;;;28.51;30.61;95306.59;5051321;28;20579;-71
2021/09/16 10:41:10;;;;;;;15.27;8.50;;;;;;;28.43;30.98;95294.13;5051245;28;20200;-71
2021/09/16 10:43:38;;;;;;;13.03;8.33;;;;;;;28.58;31.05;95290.56;5037115;28;20236;-69
2021/09/16 10:46:23;;;;;;;25.93;9.07;;;;;;;28.86;30.38;95285.66;5051014;28;20966;-69
2021/09/16 10:48:51;;;;;;;18.67;8.40;;;;;;;28.82;29.42;95284.81;5051234;28;20197;-69
2021/09/16 10:51:40;;;;;;;17.70;7.67;;;;;;;28.74;28.97;95287.75;5050777;28;20197;-70
2021/09/16 10:54:29;;;;;;;19.03;8.17;;;;;;;28.96;28.88;95279.63;5048567;28;20307;-70
2021/09/16 10:57:12;;;;;;;19.93;8.37;;;;;;;29.23;28.95;95272.34;5037319;28;20706;-71
2021/09/16 10:59:51;;;;;;;12.90;8.00;;;;;;;29.38;29.28;95273.31;5050714;28;20201;-68
2021/09/16 11:02:23;;;;;;;15.53;7.60;;;;;;;29.29;28.07;95267.41;5038991;28;20197;-71
2021/09/16 11:04:59;;;;;;;13.20;7.03;;;;;;;29.33;27.92;95262.81;5050960;28;20200;-69
2021/09/16 11:07:32;;;;;;;11.83;7.57;;;;;;;29.27;26.26;95259.66;5049719;28;20200;-69
2021/09/16 11:10:21;;;;;;;10.20;6.90;;;;;;;29.59;25.32;95252.00;5050705;28;20213;-69
2021/09/16 11:12:52;;;;;;;17.40;7.33;;;;;;;29.63;28.12;95252.81;5050168;28;20212;-70
2021/09/16 11:15:37;;;;;;;12.33;7.90;;;;;;;29.71;28.34;95238.25;5050782;28;20602;-69
2021/09/16 11:18:25;;;;;;;16.13;6.20;;;;;;;29.74;26.77;95240.25;5050225;28;20423;-69
2021/09/16 11:21:01;;;;;;;13.03;7.03;;;;;;;30.06;27.25;95233.25;5053154;28;20482;-71
2021/09/16 11:23:38;;;;;;;11.17;7.00;;;;;;;30.42;26.11;95234.41;5054904;28;20215;-70
2021/09/16 11:26:06;;;;;;;11.33;6.63;;;;;;;30.47;25.49;95228.66;5049780;28;20238;-70
2021/09/16 11:28:33;;;;;;;11.03;6.73;;;;;;;30.63;26.00;95224.53;5051000;28;20291;-69